Kalkar

DE-1061 · North Rhine-Westphalia, 德国

罗盘
风向 的 风向 的 风向 到 风向 190° 直升机
风: 11 kt, 4 beaufort
0 ft 1.000 2.000 3.000 4.000 5.000
Cloud Cloud
FEW 4.200
METAR EDLV 101620Z 19011KT 170V230 9999 FEW042 10/06 Q1002

METAR Kalkar - DE-1061

Kalkar是,德国中的直升机场。 该机场位于纬度51,76440和经度6,32250。 这个机场没有ICAO代码,我们使用DE-1061作为参考。 机场在Langen FIR中。

该航空气象观测是针对Weeze Airport在2023年12月10日 17:20, 当地时间进行的。

机场观察

风向为190°,速度为11 kt。 风向在170°和230°之间变化。

可见度为10 km 或者更多。

有几云在4.200 ft的高度。 没有观察到天花板。

温度为10 °C,阵风为6 °C。 露点为6 °C,相对湿度为76%。 海平面上的气压为1002 hPa (QNH)。

白天

今天,太阳从08:30升起,在16:24降落。 这适用于Kalkar,世界夏令时可能有所不同。 当地时间与世界标准时间之间的时差为+1 小时。 当前,没有夏令时有效。

公司介绍

我们没有关于这个机场的公司信息。

体会

到Vliegles.nl去找飞行课程,跳伞和其他飞行体验。 浏览页面,了解Kalkar附近所有可用的活动。 你也可以使用搜索功能来寻找你所在地附近的特定飞行课程、跳伞或其他飞行体验。

乌云

4.200 ft FEW 几云

温度 & 天气

温度 10 °C
露点 6 °C
相对湿度 76%
风寒 6 °C
Kp-index 0 (0-9)

白天

日出
08:30 (14:32)
中午
12:28
日落
16:26

小工具

你想在你的网站上有一个关于Kalkar的当前航空天气(METAR)的小部件吗?

显示HTML代码